createdAt,value
2023-01-29T00:01:43.405Z,-1.03
2023-01-29T00:04:15.058Z,-1.06
2023-01-29T00:06:45.548Z,-1.07
2023-01-29T00:09:16.159Z,-1.02
2023-01-29T00:11:46.419Z,-0.98
2023-01-29T00:14:16.217Z,-0.93
2023-01-29T00:16:46.967Z,-0.89
2023-01-29T00:19:18.819Z,-0.83
2023-01-29T00:24:44.865Z,-0.69
2023-01-29T00:27:15.067Z,-0.69
2023-01-29T00:30:02.795Z,-0.63
2023-01-29T00:32:33.879Z,-0.62
2023-01-29T00:35:05.273Z,-0.59
2023-01-29T00:37:36.852Z,-0.79
2023-01-29T00:40:07.359Z,-0.49
2023-01-29T00:42:54.737Z,-0.50
2023-01-29T00:45:24.692Z,-0.52
2023-01-29T00:47:54.857Z,-0.51
2023-01-29T00:50:26.234Z,-0.52
2023-01-29T00:52:56.595Z,-0.49
2023-01-29T00:55:26.824Z,-0.51
2023-01-29T00:57:57.823Z,-0.45
2023-01-29T01:00:27.856Z,-0.43
2023-01-29T01:03:06.225Z,-0.46
2023-01-29T01:05:39.486Z,-0.46
2023-01-29T01:08:30.126Z,-0.36
2023-01-29T01:10:59.479Z,-0.36
2023-01-29T01:13:29.724Z,-0.42
2023-01-29T01:16:00.503Z,-0.42
2023-01-29T01:18:31.676Z,-0.43
2023-01-29T01:21:03.126Z,-0.47
2023-01-29T01:23:33.655Z,-0.47
2023-01-29T01:26:03.475Z,-0.52
2023-01-29T01:28:35.251Z,-0.51
2023-01-29T01:31:10.326Z,-0.56
2023-01-29T01:33:41.177Z,-0.63
2023-01-29T01:36:14.086Z,-0.64
2023-01-29T01:38:45.895Z,-0.65
2023-01-29T01:41:17.047Z,-0.66
2023-01-29T01:43:49.679Z,-0.70
2023-01-29T01:46:19.923Z,-0.68
2023-01-29T01:48:53.624Z,-0.72
2023-01-29T01:51:26.266Z,-0.72
2023-01-29T01:53:59.577Z,-0.76
2023-01-29T01:56:38.745Z,-0.77
2023-01-29T01:59:11.819Z,-0.78
2023-01-29T02:01:43.550Z,-0.74
2023-01-29T02:04:35.481Z,-0.78
2023-01-29T02:07:26.443Z,-0.77
2023-01-29T02:10:02.384Z,-0.80
2023-01-29T02:12:32.393Z,-0.76
2023-01-29T02:15:03.623Z,-0.77
2023-01-29T02:17:34.376Z,-0.78
2023-01-29T02:20:07.721Z,-0.78
2023-01-29T02:23:03.841Z,-0.78
2023-01-29T02:25:59.600Z,-0.79
2023-01-29T02:28:39.773Z,-0.79
2023-01-29T02:31:15.040Z,-0.78
2023-01-29T02:33:50.277Z,-0.78
2023-01-29T02:36:24.578Z,-0.79
2023-01-29T02:39:01.313Z,-0.79
2023-01-29T02:41:35.444Z,-0.74
2023-01-29T02:44:09.453Z,-0.72
2023-01-29T02:46:43.226Z,-0.73
2023-01-29T02:49:17.013Z,-0.71
2023-01-29T02:51:52.487Z,-0.69
2023-01-29T02:54:23.377Z,-0.68
2023-01-29T02:56:55.633Z,-0.64
2023-01-29T02:59:30.179Z,-0.61
2023-01-29T03:02:03.732Z,-0.62
2023-01-29T03:04:35.817Z,-0.60
2023-01-29T03:07:10.471Z,-0.56
2023-01-29T03:09:43.647Z,-0.52
2023-01-29T03:12:29.423Z,-0.50
2023-01-29T03:15:15.409Z,-0.51
2023-01-29T03:17:56.340Z,-0.47
2023-01-29T03:20:32.624Z,-0.42
2023-01-29T03:23:07.002Z,-0.43
2023-01-29T03:25:55.544Z,-0.40
2023-01-29T03:28:46.941Z,-0.43
2023-01-29T03:31:37.292Z,-0.45
2023-01-29T03:34:10.462Z,-0.49
2023-01-29T03:36:47.184Z,-0.48
2023-01-29T03:39:19.070Z,-0.51
2023-01-29T03:41:50.967Z,-0.52
2023-01-29T03:44:26.762Z,-0.51
2023-01-29T03:46:59.135Z,-0.52
2023-01-29T03:49:33.767Z,-0.52
2023-01-29T03:52:06.354Z,-0.53
2023-01-29T03:54:45.316Z,-0.51
2023-01-29T03:57:19.207Z,-0.50
2023-01-29T03:59:55.654Z,-0.52
2023-01-29T04:02:53.275Z,-0.51
2023-01-29T04:05:26.574Z,-0.55
2023-01-29T04:08:12.146Z,-0.57
2023-01-29T04:10:44.991Z,-0.59
2023-01-29T04:13:15.470Z,-0.59
2023-01-29T04:15:49.150Z,-0.58
2023-01-29T04:18:21.586Z,-0.59
2023-01-29T04:21:07.744Z,-0.58
2023-01-29T04:23:38.603Z,-0.57
2023-01-29T04:26:23.060Z,-0.56
2023-01-29T04:28:59.367Z,-0.56
2023-01-29T04:31:34.376Z,-0.58
2023-01-29T04:34:13.777Z,-0.58
2023-01-29T04:36:50.512Z,-0.62
2023-01-29T04:39:22.576Z,-0.62
2023-01-29T04:41:55.527Z,-0.60
2023-01-29T04:44:35.551Z,-0.60
2023-01-29T04:47:07.609Z,-0.60
2023-01-29T04:49:45.208Z,-0.60
2023-01-29T04:52:18.610Z,-0.57
2023-01-29T04:54:53.259Z,-0.55
2023-01-29T04:57:27.475Z,-0.55
2023-01-29T04:59:59.798Z,-0.54
2023-01-29T05:02:30.548Z,-0.52
2023-01-29T05:05:02.130Z,-0.49
2023-01-29T05:07:32.742Z,-0.46
2023-01-29T05:10:02.795Z,-0.44
2023-01-29T05:12:33.092Z,-0.41
2023-01-29T05:15:03.764Z,-0.38
2023-01-29T05:17:33.894Z,-0.37
2023-01-29T05:20:07.870Z,-0.37
2023-01-29T05:22:38.866Z,-0.35
2023-01-29T05:25:21.337Z,-0.33
2023-01-29T05:28:06.820Z,-0.33
2023-01-29T05:30:38.059Z,-0.31
2023-01-29T05:33:13.610Z,-0.31
2023-01-29T05:35:44.727Z,-0.35
2023-01-29T05:38:15.065Z,-0.36
2023-01-29T05:40:45.267Z,-0.35
2023-01-29T05:43:19.158Z,-0.34
2023-01-29T05:45:53.832Z,-0.32
2023-01-29T05:48:24.174Z,-0.32
2023-01-29T05:50:55.290Z,-0.31
2023-01-29T05:53:25.226Z,-0.31
2023-01-29T05:55:57.397Z,-0.29
2023-01-29T05:58:27.435Z,-0.30
2023-01-29T06:00:57.118Z,-0.25
2023-01-29T06:03:27.541Z,-0.24
2023-01-29T06:05:58.817Z,-0.22
2023-01-29T06:08:28.885Z,-0.20
2023-01-29T06:10:58.458Z,-0.24
2023-01-29T06:13:28.484Z,-0.20
2023-01-29T06:15:58.320Z,-0.21
2023-01-29T06:18:28.501Z,-0.20
2023-01-29T06:21:03.930Z,-0.20
2023-01-29T06:23:34.324Z,-0.19
2023-01-29T06:26:04.347Z,-0.16
2023-01-29T06:28:35.069Z,-0.16
2023-01-29T06:31:23.761Z,-0.14
2023-01-29T06:33:57.129Z,-0.12
2023-01-29T06:36:28.421Z,-0.11
2023-01-29T06:39:00.977Z,-0.08
2023-01-29T06:41:31.148Z,-0.10
2023-01-29T06:44:01.652Z,-0.11
2023-01-29T06:46:31.867Z,-0.08
2023-01-29T06:49:02.612Z,-0.08
2023-01-29T06:51:34.156Z,-0.03
2023-01-29T06:54:04.629Z,0.01
2023-01-29T06:56:35.085Z,-0.01
2023-01-29T06:59:06.366Z,-0.02
2023-01-29T07:01:36.935Z,0.04
2023-01-29T07:04:07.608Z,0.06
2023-01-29T07:06:39.649Z,0.07
2023-01-29T07:09:13.742Z,0.09
2023-01-29T07:11:43.961Z,0.17
2023-01-29T07:14:14.508Z,0.23
2023-01-29T07:16:44.960Z,0.28
2023-01-29T07:19:15.165Z,0.25
2023-01-29T07:21:46.806Z,0.32
2023-01-29T07:24:17.495Z,0.41
2023-01-29T07:26:47.226Z,0.45
2023-01-29T07:29:18.238Z,0.50
2023-01-29T07:31:48.072Z,0.57
2023-01-29T07:34:18.401Z,0.58
2023-01-29T07:36:49.647Z,0.64
2023-01-29T07:39:20.448Z,0.74
2023-01-29T07:41:50.371Z,0.78
2023-01-29T07:44:20.763Z,0.76
2023-01-29T07:46:50.704Z,0.75
2023-01-29T07:49:20.945Z,0.78
2023-01-29T07:51:52.319Z,0.77
2023-01-29T07:54:22.873Z,0.79
2023-01-29T07:56:52.660Z,0.80
2023-01-29T07:59:23.038Z,0.78
2023-01-29T08:01:53.296Z,0.72
2023-01-29T08:04:23.890Z,0.67
2023-01-29T08:06:55.567Z,0.68
2023-01-29T08:09:26.070Z,0.71
2023-01-29T08:11:56.153Z,0.70
2023-01-29T08:14:26.771Z,0.70
2023-01-29T08:16:56.637Z,0.71
2023-01-29T08:19:30.452Z,0.77
2023-01-29T08:22:02.763Z,0.91
2023-01-29T08:24:47.395Z,0.98
2023-01-29T08:27:22.504Z,1.10
2023-01-29T08:29:52.846Z,1.16
2023-01-29T08:32:22.629Z,1.21
2023-01-29T08:34:53.023Z,1.28
2023-01-29T08:37:24.505Z,1.37
2023-01-29T08:39:54.888Z,1.44
2023-01-29T08:42:24.643Z,1.45
2023-01-29T08:44:54.735Z,1.48
2023-01-29T08:47:26.622Z,1.53
2023-01-29T08:49:58.893Z,1.61
2023-01-29T08:52:30.772Z,1.68
2023-01-29T08:55:01.121Z,1.76
2023-01-29T08:57:33.279Z,1.81
2023-01-29T09:00:05.054Z,1.86
2023-01-29T09:02:37.356Z,1.89
2023-01-29T09:05:09.800Z,1.92
2023-01-29T09:07:41.371Z,1.96
2023-01-29T09:10:12.781Z,1.93
2023-01-29T09:12:42.566Z,1.95
2023-01-29T09:15:13.318Z,1.92
2023-01-29T09:17:44.569Z,1.96
2023-01-29T09:20:14.924Z,1.91
2023-01-29T09:22:46.291Z,1.96
2023-01-29T09:25:16.930Z,2.01
2023-01-29T09:27:46.887Z,2.05
2023-01-29T09:30:17.138Z,2.09
2023-01-29T09:32:54.818Z,2.09
2023-01-29T09:35:25.644Z,2.09
2023-01-29T09:37:57.319Z,2.05
2023-01-29T09:40:30.505Z,2.06
2023-01-29T09:43:03.993Z,2.03
2023-01-29T09:45:34.631Z,1.98
2023-01-29T09:48:15.507Z,2.00
2023-01-29T09:50:51.223Z,1.99
2023-01-29T09:53:25.377Z,2.01
2023-01-29T09:55:59.195Z,2.02
2023-01-29T09:58:30.857Z,2.04
2023-01-29T10:01:04.740Z,2.03
2023-01-29T10:03:45.353Z,2.02
2023-01-29T10:06:23.557Z,2.01
2023-01-29T10:09:04.598Z,2.00
2023-01-29T10:11:40.833Z,2.02
2023-01-29T10:14:17.483Z,2.02
2023-01-29T10:16:54.693Z,1.97
2023-01-29T10:19:37.249Z,1.96
2023-01-29T10:22:14.000Z,1.96
2023-01-29T10:24:53.255Z,1.92
2023-01-29T10:27:24.215Z,1.85
2023-01-29T10:30:05.291Z,1.88
2023-01-29T10:32:40.712Z,1.86
2023-01-29T10:35:19.083Z,1.83
2023-01-29T10:37:49.250Z,1.80
2023-01-29T10:40:23.018Z,1.80
2023-01-29T10:42:59.333Z,1.88
2023-01-29T10:45:32.015Z,1.90
2023-01-29T10:48:09.595Z,1.97
2023-01-29T10:50:49.254Z,2.04
2023-01-29T10:53:35.073Z,2.11
2023-01-29T10:56:22.207Z,2.24
2023-01-29T10:58:55.780Z,2.18
2023-01-29T11:01:27.178Z,2.17
2023-01-29T11:03:59.903Z,2.14
2023-01-29T11:06:31.490Z,2.11
2023-01-29T11:09:08.572Z,2.14
2023-01-29T11:11:42.810Z,2.13
2023-01-29T11:14:15.004Z,2.27
2023-01-29T11:16:46.024Z,2.34
2023-01-29T11:19:17.168Z,2.37
2023-01-29T11:21:54.662Z,2.45
2023-01-29T11:24:24.783Z,2.40
2023-01-29T11:26:57.672Z,2.43
2023-01-29T11:29:38.674Z,2.37
2023-01-29T11:32:09.278Z,2.35
2023-01-29T11:34:58.068Z,2.38
2023-01-29T11:37:39.430Z,2.43
2023-01-29T11:40:33.400Z,2.47
2023-01-29T11:43:18.184Z,2.45
2023-01-29T11:45:51.777Z,2.46
2023-01-29T11:48:23.037Z,2.45
2023-01-29T11:50:54.170Z,2.43
2023-01-29T11:53:36.401Z,2.44
2023-01-29T11:56:16.003Z,2.53
2023-01-29T11:58:46.960Z,2.19
2023-01-29T12:01:20.368Z,2.43
2023-01-29T12:03:54.114Z,2.35
2023-01-29T12:06:25.540Z,2.27
2023-01-29T12:08:57.272Z,2.17
2023-01-29T12:11:29.813Z,2.16
2023-01-29T12:14:01.220Z,2.11
2023-01-29T12:16:35.683Z,2.09
2023-01-29T12:19:08.982Z,2.16
2023-01-29T12:21:46.992Z,2.18
2023-01-29T12:24:24.828Z,2.14
2023-01-29T12:26:57.926Z,2.12
2023-01-29T12:29:35.357Z,2.12
2023-01-29T12:32:14.048Z,2.09
2023-01-29T12:34:47.294Z,2.13
2023-01-29T12:37:22.010Z,2.03
2023-01-29T12:39:52.970Z,2.07
2023-01-29T12:42:24.256Z,2.07
2023-01-29T12:44:56.514Z,2.09
2023-01-29T12:47:30.800Z,2.10
2023-01-29T12:50:04.769Z,2.11
2023-01-29T12:52:40.151Z,2.08
2023-01-29T12:55:13.397Z,2.06
2023-01-29T12:57:47.610Z,2.10
2023-01-29T13:00:19.841Z,2.10
2023-01-29T13:02:56.210Z,2.11
2023-01-29T13:05:27.983Z,2.07
2023-01-29T13:08:00.595Z,2.06
2023-01-29T13:10:32.324Z,2.06
2023-01-29T13:13:06.536Z,2.08
2023-01-29T13:15:39.054Z,2.02
2023-01-29T13:18:22.980Z,2.02
2023-01-29T13:20:57.247Z,1.98
2023-01-29T13:23:32.749Z,1.98
2023-01-29T13:26:02.779Z,1.98
2023-01-29T13:28:33.318Z,1.97
2023-01-29T13:31:13.537Z,1.94
2023-01-29T13:33:53.516Z,1.92
2023-01-29T13:36:26.975Z,1.94
2023-01-29T13:39:00.509Z,1.94
2023-01-29T13:41:57.153Z,1.98
2023-01-29T13:44:30.213Z,2.03
2023-01-29T13:47:01.823Z,1.95
2023-01-29T13:49:36.261Z,1.90
2023-01-29T13:52:22.977Z,1.91
2023-01-29T13:54:55.608Z,1.87
2023-01-29T13:57:36.755Z,1.89
2023-01-29T14:00:07.526Z,1.95
2023-01-29T14:02:37.521Z,1.92
2023-01-29T14:05:26.066Z,1.93
2023-01-29T14:07:59.642Z,1.87
2023-01-29T14:10:31.455Z,1.85
2023-01-29T14:13:18.332Z,1.92
2023-01-29T14:16:12.895Z,1.81
2023-01-29T14:18:47.936Z,1.87
2023-01-29T14:21:24.218Z,1.84
2023-01-29T14:23:56.515Z,1.81
2023-01-29T14:26:29.641Z,1.82
2023-01-29T14:29:01.745Z,1.82
2023-01-29T14:31:38.919Z,1.81
2023-01-29T14:34:15.796Z,1.79
2023-01-29T14:36:47.172Z,1.77
2023-01-29T14:39:26.882Z,1.78
2023-01-29T14:41:57.670Z,1.78
2023-01-29T14:44:46.006Z,1.79
2023-01-29T14:47:20.555Z,1.81
2023-01-29T14:49:51.268Z,1.81
2023-01-29T14:52:23.377Z,1.82
2023-01-29T14:54:55.635Z,1.79
2023-01-29T14:57:26.402Z,1.83
2023-01-29T14:59:58.266Z,1.80
2023-01-29T15:02:35.389Z,1.80
2023-01-29T15:05:06.868Z,1.81
2023-01-29T15:07:38.817Z,1.80
2023-01-29T15:10:22.701Z,1.81
2023-01-29T15:12:58.403Z,1.84
2023-01-29T15:15:34.093Z,1.81
2023-01-29T15:18:06.955Z,1.79
2023-01-29T15:20:37.800Z,1.81
2023-01-29T15:23:22.851Z,1.84
2023-01-29T15:25:56.130Z,1.79
2023-01-29T15:28:26.651Z,1.74
2023-01-29T15:30:57.346Z,1.76
2023-01-29T15:33:28.324Z,1.77
2023-01-29T15:36:06.733Z,1.75
2023-01-29T15:38:37.818Z,1.78
2023-01-29T15:41:19.253Z,1.81
2023-01-29T15:43:51.558Z,1.83
2023-01-29T15:46:23.628Z,1.83
2023-01-29T15:48:54.997Z,1.89
2023-01-29T15:51:26.766Z,1.89
2023-01-29T15:53:58.151Z,1.89
2023-01-29T15:56:31.005Z,1.89
2023-01-29T15:59:09.358Z,1.89
2023-01-29T16:01:41.169Z,1.90
2023-01-29T16:04:15.949Z,1.89
2023-01-29T16:06:45.824Z,1.90
2023-01-29T16:09:19.085Z,1.92
2023-01-29T16:11:50.847Z,1.87
2023-01-29T16:14:22.048Z,1.86
2023-01-29T16:16:52.902Z,1.83
2023-01-29T16:19:24.772Z,1.81
2023-01-29T16:21:58.351Z,1.77
2023-01-29T16:24:29.086Z,1.74
2023-01-29T16:27:05.286Z,1.70
2023-01-29T16:29:37.636Z,1.67
2023-01-29T16:32:14.475Z,1.63
2023-01-29T16:34:45.902Z,1.63
2023-01-29T16:37:22.997Z,1.60
2023-01-29T16:39:53.996Z,1.59
2023-01-29T16:42:27.066Z,1.60
2023-01-29T16:45:09.086Z,1.59
2023-01-29T16:47:41.805Z,1.61
2023-01-29T16:50:28.954Z,1.60
2023-01-29T16:53:02.554Z,1.59
2023-01-29T16:55:39.842Z,1.61
2023-01-29T16:58:17.221Z,1.58
2023-01-29T17:00:53.569Z,1.58
2023-01-29T17:03:29.015Z,1.57
2023-01-29T17:06:12.974Z,1.55
2023-01-29T17:08:47.682Z,1.52
2023-01-29T17:11:26.664Z,1.48
2023-01-29T17:13:59.213Z,1.48
2023-01-29T17:16:31.866Z,1.48
2023-01-29T17:19:03.224Z,1.46
2023-01-29T17:22:01.055Z,1.43
2023-01-29T17:24:53.858Z,1.43
2023-01-29T17:27:34.123Z,1.14
2023-01-29T17:30:08.535Z,1.41
2023-01-29T17:32:43.933Z,1.39
2023-01-29T17:35:17.130Z,1.38
2023-01-29T17:37:47.652Z,1.37
2023-01-29T17:40:23.178Z,1.33
2023-01-29T17:42:53.205Z,1.32
2023-01-29T17:45:24.374Z,1.33
2023-01-29T17:47:54.471Z,1.34
2023-01-29T17:50:25.014Z,1.31
2023-01-29T17:52:55.137Z,1.35
2023-01-29T17:55:25.045Z,1.35
2023-01-29T17:57:55.666Z,1.34
2023-01-29T18:00:27.195Z,1.36
2023-01-29T18:02:58.314Z,1.35
2023-01-29T18:05:28.126Z,1.36
2023-01-29T18:07:58.335Z,1.35
2023-01-29T18:10:30.716Z,1.35
2023-01-29T18:13:00.993Z,1.36
2023-01-29T18:15:32.176Z,1.37
2023-01-29T18:18:02.303Z,1.37
2023-01-29T18:20:37.558Z,1.38
2023-01-29T18:23:15.071Z,1.37
2023-01-29T18:25:46.670Z,1.37
2023-01-29T18:28:17.933Z,1.37
2023-01-29T18:30:49.909Z,1.38
2023-01-29T18:33:20.534Z,1.39
2023-01-29T18:35:50.259Z,1.39
2023-01-29T18:38:20.940Z,1.39
2023-01-29T18:40:50.691Z,1.44
2023-01-29T18:43:20.986Z,1.44
2023-01-29T18:45:52.814Z,1.45
2023-01-29T18:48:23.100Z,1.47
2023-01-29T18:50:52.676Z,1.46
2023-01-29T18:53:22.884Z,1.45
2023-01-29T18:55:56.563Z,1.48
2023-01-29T18:58:33.556Z,1.47
2023-01-29T19:01:10.111Z,1.49
2023-01-29T19:03:40.746Z,1.55
2023-01-29T19:06:12.170Z,1.58
2023-01-29T19:08:45.297Z,1.60
2023-01-29T19:11:15.071Z,1.60
2023-01-29T19:13:45.599Z,1.57
2023-01-29T19:16:16.774Z,1.60
2023-01-29T19:18:47.626Z,1.58
2023-01-29T19:21:17.873Z,1.56
2023-01-29T19:23:47.958Z,1.54
2023-01-29T19:26:17.795Z,1.56
2023-01-29T19:28:47.841Z,1.54
2023-01-29T19:31:19.025Z,1.54
2023-01-29T19:33:49.319Z,1.51
2023-01-29T19:36:19.195Z,1.52
2023-01-29T19:38:50.460Z,1.55
2023-01-29T19:41:20.428Z,1.53
2023-01-29T19:43:50.909Z,1.54
2023-01-29T19:46:23.368Z,1.54
2023-01-29T19:48:55.342Z,1.55
2023-01-29T19:51:26.584Z,1.54
2023-01-29T19:53:57.813Z,1.54
2023-01-29T19:56:27.822Z,1.53
2023-01-29T19:58:58.766Z,1.50
2023-01-29T20:01:30.838Z,1.47
2023-01-29T20:04:01.023Z,1.47
2023-01-29T20:06:32.641Z,1.44
2023-01-29T20:09:06.103Z,1.44
2023-01-29T20:11:37.351Z,1.41
2023-01-29T20:14:07.523Z,1.41
2023-01-29T20:16:38.833Z,1.41
2023-01-29T20:19:14.153Z,1.42
2023-01-29T20:21:49.174Z,1.43
2023-01-29T20:24:19.498Z,1.43
2023-01-29T20:26:49.180Z,1.45
2023-01-29T20:29:19.527Z,1.45
2023-01-29T20:31:51.345Z,1.45
2023-01-29T20:34:21.520Z,1.46
2023-01-29T20:36:51.930Z,1.45
2023-01-29T20:39:21.860Z,1.41
2023-01-29T20:41:51.541Z,1.43
2023-01-29T20:44:23.499Z,1.46
2023-01-29T20:46:55.143Z,1.49
2023-01-29T20:49:25.178Z,1.51
2023-01-29T20:51:55.909Z,1.52
2023-01-29T20:54:26.119Z,1.52
2023-01-29T20:56:58.600Z,1.55
2023-01-29T20:59:30.902Z,1.53
2023-01-29T21:02:02.162Z,1.57
2023-01-29T21:04:32.820Z,1.57
2023-01-29T21:07:02.517Z,1.58
2023-01-29T21:09:34.797Z,1.62
2023-01-29T21:12:08.541Z,1.65
2023-01-29T21:14:39.255Z,1.64
2023-01-29T21:17:11.569Z,1.64
2023-01-29T21:19:43.680Z,1.68
2023-01-29T21:22:16.018Z,1.69
2023-01-29T21:24:47.271Z,1.67
2023-01-29T21:27:18.919Z,1.66
2023-01-29T21:29:50.861Z,1.66
2023-01-29T21:32:22.328Z,1.77
2023-01-29T21:34:53.525Z,1.76
2023-01-29T21:37:24.184Z,1.77
2023-01-29T21:39:56.970Z,1.78
2023-01-29T21:42:46.958Z,1.77
2023-01-29T21:45:18.326Z,1.77
2023-01-29T21:47:50.119Z,1.74
2023-01-29T21:50:25.261Z,1.74
2023-01-29T21:52:56.937Z,1.81
2023-01-29T21:55:28.539Z,1.77
2023-01-29T21:57:59.870Z,1.75
2023-01-29T22:00:32.098Z,1.72
2023-01-29T22:03:04.819Z,1.71
2023-01-29T22:05:35.402Z,1.68
2023-01-29T22:08:05.235Z,1.68
2023-01-29T22:10:36.772Z,1.64
2023-01-29T22:13:06.554Z,1.67
2023-01-29T22:15:36.605Z,1.63
2023-01-29T22:18:07.900Z,1.66
2023-01-29T22:20:38.152Z,1.63
2023-01-29T22:23:07.977Z,1.64
2023-01-29T22:25:38.040Z,1.66
2023-01-29T22:28:08.459Z,1.67
2023-01-29T22:30:38.708Z,1.64
2023-01-29T22:33:10.840Z,1.63
2023-01-29T22:35:40.950Z,1.66
2023-01-29T22:38:10.631Z,1.62
2023-01-29T22:40:40.851Z,1.64
2023-01-29T22:43:10.579Z,1.61
2023-01-29T22:45:42.399Z,1.60
2023-01-29T22:48:15.222Z,1.55
2023-01-29T22:50:53.290Z,1.55
2023-01-29T22:53:22.906Z,1.53
2023-01-29T22:55:56.182Z,1.51
2023-01-29T22:58:30.380Z,1.50
2023-01-29T23:01:01.923Z,1.45
2023-01-29T23:03:33.034Z,1.41
2023-01-29T23:06:03.388Z,1.41
2023-01-29T23:08:34.054Z,1.41
2023-01-29T23:11:14.689Z,1.43
2023-01-29T23:13:46.107Z,1.41
2023-01-29T23:16:17.739Z,1.42
2023-01-29T23:18:50.966Z,1.40
2023-01-29T23:21:21.410Z,1.41
2023-01-29T23:23:53.401Z,1.41
2023-01-29T23:26:40.779Z,1.39
2023-01-29T23:29:10.973Z,1.34
2023-01-29T23:31:41.596Z,1.34
2023-01-29T23:34:14.054Z,1.32
2023-01-29T23:36:44.464Z,1.29
2023-01-29T23:39:14.482Z,1.29
2023-01-29T23:41:45.339Z,1.27
2023-01-29T23:44:15.235Z,1.24
2023-01-29T23:46:45.716Z,1.23
2023-01-29T23:49:17.240Z,1.23
2023-01-29T23:51:49.055Z,1.22
2023-01-29T23:54:18.915Z,1.20
2023-01-29T23:56:49.730Z,1.21
2023-01-29T23:59:19.612Z,1.19
